Tropical Cyclones
[Index]
Main Index Home Page Stock Weather Photos Extreme Storms Discussion Storm News and Storm Chasing Reports Tropical Cyclones / Hurricanes / Typhoons Weather Data and Links Wild Fires / Bushfires Weather Observation Techniques Weather Picture Catalogue Tornado Pictures and Reports Stock Video Footage and DVDs for sale
Season 2004-2005 Tropical Cyclone HENNIE Track Map
Season 2004-2005 Summaries (Operational Data): [AU] [SIO] [SPAC] [SH]
<<- Previous TC | 2004-2005 Season | Next TC ->>

click for intensity scale information  Lat/long Grid: Show Hide

 Date Labels: Show Hide

Operational Tropical Cyclone Data : JTWC Advisories

Name: HENNIE
Number: 0524

21 Mar 2005 06:00 UTC to 29 Mar 2005 12:00 UTC

    date/time    lat    long     hPa   cat  kts
2005-03-21 06   12.8    63.9    1004         20          
2005-03-21 12   13.6    62.8    1002         25          
2005-03-21 18   14.2    61.4    1000         25          
2005-03-22 00   14.5    60.3     997         30          
2005-03-22 06   14.7    59.8     998         30          
2005-03-22 12   15.6    59.2     995    1    35          
2005-03-22 18   15.8    58.4     994    1    35          
2005-03-23 00   16.0    58.3     994    1    35          
2005-03-23 06   16.5    58.8     992    1    40          
2005-03-23 12   17.4    58.9     990    1    40          
2005-03-23 18   18.8    58.6     985    2    50          
2005-03-24 00   19.4    58.6     980    2    55          
2005-03-24 06   20.4    59.0     980    2    55          
2005-03-24 12   21.3    58.8     980    2    55          
2005-03-24 18   21.8    58.9     980    2    55          
2005-03-25 00   22.5    58.9     984    2    50          
2005-03-25 06   22.5    59.0     984    2    50          
2005-03-25 12   22.7    59.3     984    2    50          
2005-03-25 18   23.2    60.6     985    2    50          
2005-03-26 00   23.4    60.8     986    1    45          
2005-03-26 06   23.8    61.1     986    1    45          
2005-03-26 12   24.5    61.4     986    1    45          
2005-03-26 18   25.0    61.8     986    1    45          
2005-03-27 00   25.3    61.4     988    1    45          
2005-03-27 06   25.8    62.1     990    1    45          
2005-03-27 12   25.9    62.6     990    1    45          
2005-03-27 18   26.0    63.5     990    1    45          
2005-03-28 00   26.1    63.8     990    1    45          
2005-03-28 06   26.5    64.2     990    1    45          
2005-03-28 12   27.0    65.0     990    1    45          
2005-03-28 18   27.8    65.2     992    1    45          
2005-03-29 00   28.1    66.1     994    1    45          
2005-03-29 06   28.9    66.3     994    1    45          
2005-03-29 12   30.2    66.5     994    1    45          
Winds are 10-min average.

Tropical cyclone tracks developed by Michael Bath using operational warnings and advisories and Google Maps.


[Australian Severe Weather index] [Copyright Notice] [Email Contacts] [Search This Site] [Privacy Policy]
Document: tropical_cyclone_hennie.htm Updated: 28 May 2013